sensor_id;sensor_type;location;lat;lon;timestamp;P1;durP1;ratioP1;P2;durP2;ratioP2
17604;SDS011;8921;50.964;6.800;2024-01-25T00:01:56;43.17;;;7.87;;
17604;SDS011;8921;50.964;6.800;2024-01-25T00:04:24;35.50;;;7.73;;
17604;SDS011;8921;50.964;6.800;2024-01-25T00:06:52;33.30;;;8.50;;
17604;SDS011;8921;50.964;6.800;2024-01-25T00:09:20;39.37;;;7.90;;
17604;SDS011;8921;50.964;6.800;2024-01-25T00:11:49;27.00;;;8.00;;
17604;SDS011;8921;50.964;6.800;2024-01-25T00:14:17;42.00;;;8.73;;
17604;SDS011;8921;50.964;6.800;2024-01-25T00:16:45;55.73;;;8.80;;
17604;SDS011;8921;50.964;6.800;2024-01-25T00:19:14;29.50;;;8.83;;
17604;SDS011;8921;50.964;6.800;2024-01-25T00:21:42;41.67;;;9.40;;
17604;SDS011;8921;50.964;6.800;2024-01-25T00:24:11;38.30;;;8.60;;
17604;SDS011;8921;50.964;6.800;2024-01-25T00:26:38;40.67;;;7.30;;
17604;SDS011;8921;50.964;6.800;2024-01-25T00:29:07;35.93;;;8.37;;
17604;SDS011;8921;50.964;6.800;2024-01-25T00:31:35;32.87;;;7.77;;
17604;SDS011;8921;50.964;6.800;2024-01-25T00:34:03;32.37;;;7.43;;
17604;SDS011;8921;50.964;6.800;2024-01-25T00:36:32;33.30;;;8.17;;
17604;SDS011;8921;50.964;6.800;2024-01-25T00:39:00;30.07;;;6.70;;
17604;SDS011;8921;50.964;6.800;2024-01-25T00:41:29;43.37;;;8.80;;
17604;SDS011;8921;50.964;6.800;2024-01-25T00:43:57;38.80;;;10.33;;
17604;SDS011;8921;50.964;6.800;2024-01-25T00:46:25;36.37;;;9.27;;
17604;SDS011;8921;50.964;6.800;2024-01-25T00:48:54;33.97;;;9.40;;
17604;SDS011;8921;50.964;6.800;2024-01-25T00:51:22;42.47;;;7.80;;
17604;SDS011;8921;50.964;6.800;2024-01-25T00:53:51;27.20;;;8.23;;
17604;SDS011;8921;50.964;6.800;2024-01-25T00:56:19;40.73;;;8.27;;
17604;SDS011;8921;50.964;6.800;2024-01-25T00:58:48;33.83;;;7.90;;
17604;SDS011;8921;50.964;6.800;2024-01-25T01:01:16;28.23;;;7.27;;
17604;SDS011;8921;50.964;6.800;2024-01-25T01:03:44;34.80;;;8.83;;
17604;SDS011;8921;50.964;6.800;2024-01-25T01:06:13;56.93;;;10.70;;
17604;SDS011;8921;50.964;6.800;2024-01-25T01:08:41;33.20;;;7.20;;
17604;SDS011;8921;50.964;6.800;2024-01-25T01:11:10;35.40;;;8.80;;
17604;SDS011;8921;50.964;6.800;2024-01-25T01:13:38;40.97;;;10.10;;
17604;SDS011;8921;50.964;6.800;2024-01-25T01:16:06;46.50;;;8.10;;
17604;SDS011;8921;50.964;6.800;2024-01-25T01:18:34;38.80;;;8.80;;
17604;SDS011;8921;50.964;6.800;2024-01-25T01:21:03;27.87;;;8.23;;
17604;SDS011;8921;50.964;6.800;2024-01-25T01:23:31;36.47;;;10.07;;
17604;SDS011;8921;50.964;6.800;2024-01-25T01:25:59;44.07;;;11.50;;
17604;SDS011;8921;50.964;6.800;2024-01-25T01:28:28;36.10;;;6.80;;
17604;SDS011;8921;50.964;6.800;2024-01-25T01:30:56;38.20;;;8.20;;
17604;SDS011;8921;50.964;6.800;2024-01-25T01:33:24;63.07;;;9.50;;
17604;SDS011;8921;50.964;6.800;2024-01-25T01:35:53;44.97;;;8.87;;
17604;SDS011;8921;50.964;6.800;2024-01-25T01:38:21;34.77;;;8.30;;
17604;SDS011;8921;50.964;6.800;2024-01-25T01:40:49;46.13;;;8.03;;
17604;SDS011;8921;50.964;6.800;2024-01-25T01:43:20;32.77;;;8.57;;
17604;SDS011;8921;50.964;6.800;2024-01-25T01:45:49;34.57;;;9.17;;
17604;SDS011;8921;50.964;6.800;2024-01-25T01:48:17;39.50;;;8.27;;
17604;SDS011;8921;50.964;6.800;2024-01-25T01:50:45;31.90;;;8.90;;
17604;SDS011;8921;50.964;6.800;2024-01-25T01:53:14;27.73;;;7.10;;
17604;SDS011;8921;50.964;6.800;2024-01-25T01:55:42;38.87;;;8.57;;
17604;SDS011;8921;50.964;6.800;2024-01-25T01:58:10;32.40;;;9.60;;
17604;SDS011;8921;50.964;6.800;2024-01-25T02:00:38;37.13;;;9.37;;
17604;SDS011;8921;50.964;6.800;2024-01-25T02:03:07;32.87;;;8.50;;
17604;SDS011;8921;50.964;6.800;2024-01-25T02:05:35;42.00;;;10.03;;
17604;SDS011;8921;50.964;6.800;2024-01-25T02:08:03;35.50;;;8.60;;
17604;SDS011;8921;50.964;6.800;2024-01-25T02:10:32;37.70;;;9.27;;
17604;SDS011;8921;50.964;6.800;2024-01-25T02:13:00;39.83;;;8.97;;
17604;SDS011;8921;50.964;6.800;2024-01-25T02:15:28;39.43;;;9.50;;
17604;SDS011;8921;50.964;6.800;2024-01-25T02:17:57;30.97;;;7.83;;
17604;SDS011;8921;50.964;6.800;2024-01-25T02:20:25;43.87;;;8.97;;
17604;SDS011;8921;50.964;6.800;2024-01-25T02:22:53;32.67;;;7.83;;
17604;SDS011;8921;50.964;6.800;2024-01-25T02:25:21;28.67;;;9.10;;
17604;SDS011;8921;50.964;6.800;2024-01-25T02:27:50;41.27;;;8.03;;
17604;SDS011;8921;50.964;6.800;2024-01-25T02:30:18;37.87;;;8.73;;
17604;SDS011;8921;50.964;6.800;2024-01-25T02:32:46;34.47;;;8.30;;
17604;SDS011;8921;50.964;6.800;2024-01-25T02:35:15;38.93;;;9.13;;
17604;SDS011;8921;50.964;6.800;2024-01-25T02:37:43;52.33;;;10.80;;
17604;SDS011;8921;50.964;6.800;2024-01-25T02:40:11;36.13;;;7.77;;
17604;SDS011;8921;50.964;6.800;2024-01-25T02:42:40;37.33;;;7.87;;
17604;SDS011;8921;50.964;6.800;2024-01-25T02:45:08;42.40;;;9.07;;
17604;SDS011;8921;50.964;6.800;2024-01-25T02:47:37;30.27;;;7.67;;
17604;SDS011;8921;50.964;6.800;2024-01-25T02:50:05;38.43;;;11.97;;
17604;SDS011;8921;50.964;6.800;2024-01-25T02:52:33;38.07;;;9.57;;
17604;SDS011;8921;50.964;6.800;2024-01-25T02:55:02;34.10;;;10.10;;
17604;SDS011;8921;50.964;6.800;2024-01-25T02:57:30;40.23;;;7.73;;
17604;SDS011;8921;50.964;6.800;2024-01-25T02:59:58;39.47;;;9.63;;
17604;SDS011;8921;50.964;6.800;2024-01-25T03:02:27;34.47;;;8.97;;
17604;SDS011;8921;50.964;6.800;2024-01-25T03:04:55;38.90;;;8.77;;
17604;SDS011;8921;50.964;6.800;2024-01-25T03:07:23;33.60;;;8.87;;
17604;SDS011;8921;50.964;6.800;2024-01-25T03:09:52;43.97;;;10.03;;
17604;SDS011;8921;50.964;6.800;2024-01-25T03:12:20;42.37;;;10.90;;
17604;SDS011;8921;50.964;6.800;2024-01-25T03:14:48;49.07;;;9.30;;
17604;SDS011;8921;50.964;6.800;2024-01-25T03:17:16;54.20;;;11.87;;
17604;SDS011;8921;50.964;6.800;2024-01-25T03:19:45;46.07;;;9.70;;
17604;SDS011;8921;50.964;6.800;2024-01-25T03:22:13;44.60;;;12.73;;
17604;SDS011;8921;50.964;6.800;2024-01-25T03:24:41;47.20;;;9.00;;
17604;SDS011;8921;50.964;6.800;2024-01-25T03:27:10;46.23;;;12.57;;
17604;SDS011;8921;50.964;6.800;2024-01-25T03:29:41;42.83;;;11.30;;
17604;SDS011;8921;50.964;6.800;2024-01-25T03:32:10;35.67;;;8.70;;
17604;SDS011;8921;50.964;6.800;2024-01-25T03:34:38;50.37;;;11.47;;
17604;SDS011;8921;50.964;6.800;2024-01-25T03:37:06;53.03;;;11.60;;
17604;SDS011;8921;50.964;6.800;2024-01-25T03:39:34;40.73;;;8.93;;
17604;SDS011;8921;50.964;6.800;2024-01-25T03:42:03;26.60;;;8.30;;
17604;SDS011;8921;50.964;6.800;2024-01-25T03:44:31;49.30;;;10.20;;
17604;SDS011;8921;50.964;6.800;2024-01-25T03:46:59;67.93;;;11.10;;
17604;SDS011;8921;50.964;6.800;2024-01-25T03:49:28;46.90;;;9.13;;
17604;SDS011;8921;50.964;6.800;2024-01-25T03:51:56;52.77;;;9.70;;
17604;SDS011;8921;50.964;6.800;2024-01-25T03:54:24;32.03;;;8.00;;
17604;SDS011;8921;50.964;6.800;2024-01-25T03:56:52;47.13;;;13.47;;
17604;SDS011;8921;50.964;6.800;2024-01-25T03:59:21;43.10;;;9.67;;
17604;SDS011;8921;50.964;6.800;2024-01-25T04:01:49;37.53;;;9.00;;
17604;SDS011;8921;50.964;6.800;2024-01-25T04:04:17;51.87;;;11.10;;
17604;SDS011;8921;50.964;6.800;2024-01-25T04:06:46;39.50;;;8.40;;
17604;SDS011;8921;50.964;6.800;2024-01-25T04:09:14;40.37;;;9.13;;
17604;SDS011;8921;50.964;6.800;2024-01-25T04:11:42;48.33;;;10.03;;
17604;SDS011;8921;50.964;6.800;2024-01-25T04:14:10;34.63;;;8.47;;
17604;SDS011;8921;50.964;6.800;2024-01-25T04:16:39;53.93;;;10.40;;
17604;SDS011;8921;50.964;6.800;2024-01-25T04:19:07;48.90;;;10.33;;
17604;SDS011;8921;50.964;6.800;2024-01-25T04:21:37;42.40;;;11.50;;
17604;SDS011;8921;50.964;6.800;2024-01-25T04:24:04;36.07;;;9.43;;
17604;SDS011;8921;50.964;6.800;2024-01-25T04:26:32;46.03;;;11.40;;
17604;SDS011;8921;50.964;6.800;2024-01-25T04:29:01;51.60;;;10.00;;
17604;SDS011;8921;50.964;6.800;2024-01-25T04:31:29;40.40;;;8.90;;
17604;SDS011;8921;50.964;6.800;2024-01-25T04:33:57;40.30;;;10.23;;
17604;SDS011;8921;50.964;6.800;2024-01-25T04:36:26;49.67;;;10.10;;
17604;SDS011;8921;50.964;6.800;2024-01-25T04:38:54;39.23;;;9.30;;
17604;SDS011;8921;50.964;6.800;2024-01-25T04:41:22;47.13;;;10.80;;
17604;SDS011;8921;50.964;6.800;2024-01-25T04:43:50;46.80;;;11.40;;
17604;SDS011;8921;50.964;6.800;2024-01-25T04:46:19;41.20;;;9.23;;
17604;SDS011;8921;50.964;6.800;2024-01-25T04:48:47;48.50;;;9.47;;
17604;SDS011;8921;50.964;6.800;2024-01-25T04:51:16;52.80;;;9.77;;
17604;SDS011;8921;50.964;6.800;2024-01-25T04:53:44;45.67;;;11.27;;
17604;SDS011;8921;50.964;6.800;2024-01-25T04:56:12;30.30;;;10.90;;
17604;SDS011;8921;50.964;6.800;2024-01-25T04:58:40;56.50;;;15.60;;
17604;SDS011;8921;50.964;6.800;2024-01-25T05:01:08;56.93;;;13.23;;
17604;SDS011;8921;50.964;6.800;2024-01-25T05:03:37;38.20;;;11.17;;
17604;SDS011;8921;50.964;6.800;2024-01-25T05:06:05;45.97;;;10.60;;
17604;SDS011;8921;50.964;6.800;2024-01-25T05:08:33;35.50;;;10.17;;
17604;SDS011;8921;50.964;6.800;2024-01-25T05:11:02;52.97;;;11.97;;
17604;SDS011;8921;50.964;6.800;2024-01-25T05:13:30;38.77;;;12.00;;
17604;SDS011;8921;50.964;6.800;2024-01-25T05:15:58;32.47;;;9.27;;
17604;SDS011;8921;50.964;6.800;2024-01-25T05:18:26;50.17;;;11.90;;
17604;SDS011;8921;50.964;6.800;2024-01-25T05:20:55;42.03;;;10.10;;
17604;SDS011;8921;50.964;6.800;2024-01-25T05:23:23;41.17;;;9.83;;
17604;SDS011;8921;50.964;6.800;2024-01-25T05:25:52;38.63;;;8.93;;
17604;SDS011;8921;50.964;6.800;2024-01-25T05:28:20;37.03;;;11.70;;
17604;SDS011;8921;50.964;6.800;2024-01-25T05:30:48;37.07;;;9.17;;
17604;SDS011;8921;50.964;6.800;2024-01-25T05:33:16;38.67;;;10.23;;
17604;SDS011;8921;50.964;6.800;2024-01-25T05:35:44;43.67;;;11.73;;
17604;SDS011;8921;50.964;6.800;2024-01-25T05:38:13;48.80;;;11.00;;
17604;SDS011;8921;50.964;6.800;2024-01-25T05:40:41;33.60;;;9.13;;
17604;SDS011;8921;50.964;6.800;2024-01-25T05:43:09;37.33;;;9.37;;
17604;SDS011;8921;50.964;6.800;2024-01-25T05:45:38;52.80;;;10.03;;
17604;SDS011;8921;50.964;6.800;2024-01-25T05:48:06;48.23;;;9.97;;
17604;SDS011;8921;50.964;6.800;2024-01-25T05:50:34;31.83;;;8.67;;
17604;SDS011;8921;50.964;6.800;2024-01-25T05:53:03;62.77;;;21.13;;
17604;SDS011;8921;50.964;6.800;2024-01-25T05:55:31;52.83;;;14.00;;
17604;SDS011;8921;50.964;6.800;2024-01-25T05:57:59;36.50;;;9.77;;
17604;SDS011;8921;50.964;6.800;2024-01-25T06:00:28;49.20;;;11.03;;
17604;SDS011;8921;50.964;6.800;2024-01-25T06:02:56;50.67;;;12.83;;
17604;SDS011;8921;50.964;6.800;2024-01-25T06:05:24;45.70;;;8.80;;
17604;SDS011;8921;50.964;6.800;2024-01-25T06:07:52;40.47;;;10.23;;
17604;SDS011;8921;50.964;6.800;2024-01-25T06:10:21;41.80;;;8.57;;
17604;SDS011;8921;50.964;6.800;2024-01-25T06:12:49;33.83;;;9.83;;
17604;SDS011;8921;50.964;6.800;2024-01-25T06:15:17;38.97;;;8.73;;
17604;SDS011;8921;50.964;6.800;2024-01-25T06:17:46;49.40;;;10.03;;
17604;SDS011;8921;50.964;6.800;2024-01-25T06:20:14;42.50;;;9.50;;
17604;SDS011;8921;50.964;6.800;2024-01-25T06:22:42;60.30;;;11.60;;
17604;SDS011;8921;50.964;6.800;2024-01-25T06:25:11;41.80;;;10.13;;
17604;SDS011;8921;50.964;6.800;2024-01-25T06:27:39;33.77;;;8.70;;
17604;SDS011;8921;50.964;6.800;2024-01-25T06:30:07;46.03;;;10.63;;
17604;SDS011;8921;50.964;6.800;2024-01-25T06:32:36;53.53;;;11.60;;
17604;SDS011;8921;50.964;6.800;2024-01-25T06:35:04;51.10;;;11.23;;
17604;SDS011;8921;50.964;6.800;2024-01-25T06:37:32;44.10;;;12.10;;
17604;SDS011;8921;50.964;6.800;2024-01-25T06:40:01;54.60;;;11.43;;
17604;SDS011;8921;50.964;6.800;2024-01-25T06:42:29;37.17;;;9.23;;
17604;SDS011;8921;50.964;6.800;2024-01-25T06:44:57;47.53;;;10.97;;
17604;SDS011;8921;50.964;6.800;2024-01-25T06:47:26;49.67;;;11.00;;
17604;SDS011;8921;50.964;6.800;2024-01-25T06:49:54;45.27;;;14.93;;
17604;SDS011;8921;50.964;6.800;2024-01-25T06:52:22;48.73;;;11.17;;
17604;SDS011;8921;50.964;6.800;2024-01-25T06:54:50;49.63;;;11.57;;
17604;SDS011;8921;50.964;6.800;2024-01-25T06:57:19;48.50;;;9.77;;
17604;SDS011;8921;50.964;6.800;2024-01-25T06:59:47;48.60;;;10.00;;
17604;SDS011;8921;50.964;6.800;2024-01-25T07:02:15;55.10;;;10.80;;
17604;SDS011;8921;50.964;6.800;2024-01-25T07:04:44;37.77;;;10.97;;
17604;SDS011;8921;50.964;6.800;2024-01-25T07:07:12;47.23;;;10.03;;
17604;SDS011;8921;50.964;6.800;2024-01-25T07:09:40;40.33;;;13.10;;
17604;SDS011;8921;50.964;6.800;2024-01-25T07:12:09;46.30;;;9.27;;
17604;SDS011;8921;50.964;6.800;2024-01-25T07:14:37;38.23;;;9.67;;
17604;SDS011;8921;50.964;6.800;2024-01-25T07:17:05;37.03;;;8.87;;
17604;SDS011;8921;50.964;6.800;2024-01-25T07:19:34;37.83;;;9.87;;
17604;SDS011;8921;50.964;6.800;2024-01-25T07:22:02;47.00;;;14.43;;
17604;SDS011;8921;50.964;6.800;2024-01-25T07:24:30;62.43;;;17.90;;
17604;SDS011;8921;50.964;6.800;2024-01-25T07:26:58;45.80;;;14.40;;
17604;SDS011;8921;50.964;6.800;2024-01-25T07:29:27;31.27;;;10.80;;
17604;SDS011;8921;50.964;6.800;2024-01-25T07:31:55;41.07;;;12.73;;
17604;SDS011;8921;50.964;6.800;2024-01-25T07:34:23;40.73;;;14.47;;
17604;SDS011;8921;50.964;6.800;2024-01-25T07:36:52;31.93;;;10.80;;
17604;SDS011;8921;50.964;6.800;2024-01-25T07:39:20;40.80;;;11.90;;
17604;SDS011;8921;50.964;6.800;2024-01-25T07:41:48;49.00;;;12.37;;
17604;SDS011;8921;50.964;6.800;2024-01-25T07:44:16;48.33;;;13.27;;
17604;SDS011;8921;50.964;6.800;2024-01-25T07:46:45;43.23;;;12.97;;
17604;SDS011;8921;50.964;6.800;2024-01-25T07:49:13;48.60;;;13.30;;
17604;SDS011;8921;50.964;6.800;2024-01-25T07:51:41;35.40;;;13.33;;
17604;SDS011;8921;50.964;6.800;2024-01-25T07:54:10;50.17;;;13.53;;
17604;SDS011;8921;50.964;6.800;2024-01-25T07:56:38;53.33;;;14.53;;
17604;SDS011;8921;50.964;6.800;2024-01-25T07:59:06;69.57;;;15.03;;
17604;SDS011;8921;50.964;6.800;2024-01-25T08:01:35;64.07;;;16.10;;
17604;SDS011;8921;50.964;6.800;2024-01-25T08:04:03;49.80;;;15.10;;
17604;SDS011;8921;50.964;6.800;2024-01-25T08:06:31;49.20;;;14.30;;
17604;SDS011;8921;50.964;6.800;2024-01-25T08:09:00;55.40;;;13.03;;
17604;SDS011;8921;50.964;6.800;2024-01-25T08:11:28;55.23;;;13.03;;
17604;SDS011;8921;50.964;6.800;2024-01-25T08:13:56;49.17;;;14.90;;
17604;SDS011;8921;50.964;6.800;2024-01-25T08:16:24;54.60;;;14.50;;
17604;SDS011;8921;50.964;6.800;2024-01-25T08:18:53;62.10;;;14.20;;
17604;SDS011;8921;50.964;6.800;2024-01-25T08:21:21;45.50;;;13.50;;
17604;SDS011;8921;50.964;6.800;2024-01-25T08:23:49;45.97;;;13.67;;
17604;SDS011;8921;50.964;6.800;2024-01-25T08:26:18;39.17;;;13.43;;
17604;SDS011;8921;50.964;6.800;2024-01-25T08:28:46;44.13;;;12.10;;
17604;SDS011;8921;50.964;6.800;2024-01-25T08:31:14;41.03;;;12.80;;
17604;SDS011;8921;50.964;6.800;2024-01-25T08:33:42;49.23;;;13.30;;
17604;SDS011;8921;50.964;6.800;2024-01-25T08:36:11;57.83;;;12.90;;
17604;SDS011;8921;50.964;6.800;2024-01-25T08:38:39;45.07;;;12.00;;
17604;SDS011;8921;50.964;6.800;2024-01-25T08:41:07;36.93;;;11.50;;
17604;SDS011;8921;50.964;6.800;2024-01-25T08:43:36;42.90;;;12.43;;
17604;SDS011;8921;50.964;6.800;2024-01-25T08:46:04;38.03;;;12.07;;
17604;SDS011;8921;50.964;6.800;2024-01-25T08:48:32;32.93;;;12.53;;
17604;SDS011;8921;50.964;6.800;2024-01-25T08:51:00;45.47;;;13.47;;
17604;SDS011;8921;50.964;6.800;2024-01-25T08:53:29;51.33;;;14.50;;
17604;SDS011;8921;50.964;6.800;2024-01-25T08:55:57;49.47;;;16.90;;
17604;SDS011;8921;50.964;6.800;2024-01-25T08:58:25;39.07;;;13.87;;
17604;SDS011;8921;50.964;6.800;2024-01-25T09:00:54;43.63;;;12.17;;
17604;SDS011;8921;50.964;6.800;2024-01-25T09:03:22;56.67;;;14.70;;
17604;SDS011;8921;50.964;6.800;2024-01-25T09:05:50;39.40;;;14.57;;
17604;SDS011;8921;50.964;6.800;2024-01-25T09:08:19;47.87;;;13.97;;
17604;SDS011;8921;50.964;6.800;2024-01-25T09:10:47;45.73;;;14.10;;
17604;SDS011;8921;50.964;6.800;2024-01-25T09:13:15;48.93;;;15.60;;
17604;SDS011;8921;50.964;6.800;2024-01-25T09:15:43;44.10;;;16.30;;
17604;SDS011;8921;50.964;6.800;2024-01-25T09:18:12;48.50;;;14.60;;
17604;SDS011;8921;50.964;6.800;2024-01-25T09:20:40;42.87;;;13.50;;
17604;SDS011;8921;50.964;6.800;2024-01-25T09:23:08;49.70;;;16.83;;
17604;SDS011;8921;50.964;6.800;2024-01-25T09:25:37;42.80;;;14.20;;
17604;SDS011;8921;50.964;6.800;2024-01-25T09:28:05;49.37;;;15.13;;
17604;SDS011;8921;50.964;6.800;2024-01-25T09:30:33;38.23;;;11.97;;
17604;SDS011;8921;50.964;6.800;2024-01-25T09:33:02;44.27;;;14.10;;
17604;SDS011;8921;50.964;6.800;2024-01-25T09:35:30;43.00;;;14.13;;
17604;SDS011;8921;50.964;6.800;2024-01-25T09:37:58;44.57;;;13.00;;
17604;SDS011;8921;50.964;6.800;2024-01-25T09:40:26;37.20;;;12.27;;
17604;SDS011;8921;50.964;6.800;2024-01-25T09:42:55;43.53;;;15.97;;
17604;SDS011;8921;50.964;6.800;2024-01-25T09:45:23;49.37;;;16.60;;
17604;SDS011;8921;50.964;6.800;2024-01-25T09:47:51;43.80;;;14.63;;
17604;SDS011;8921;50.964;6.800;2024-01-25T09:50:20;41.60;;;14.17;;
17604;SDS011;8921;50.964;6.800;2024-01-25T09:52:50;42.33;;;16.43;;
17604;SDS011;8921;50.964;6.800;2024-01-25T09:55:16;46.10;;;16.27;;
17604;SDS011;8921;50.964;6.800;2024-01-25T09:57:45;38.73;;;14.40;;
17604;SDS011;8921;50.964;6.800;2024-01-25T10:00:13;31.77;;;14.07;;
17604;SDS011;8921;50.964;6.800;2024-01-25T10:02:42;35.80;;;11.27;;
17604;SDS011;8921;50.964;6.800;2024-01-25T10:05:10;42.97;;;13.90;;
17604;SDS011;8921;50.964;6.800;2024-01-25T10:07:39;40.97;;;12.83;;
17604;SDS011;8921;50.964;6.800;2024-01-25T10:10:07;31.63;;;11.70;;
17604;SDS011;8921;50.964;6.800;2024-01-25T10:12:36;44.80;;;12.77;;
17604;SDS011;8921;50.964;6.800;2024-01-25T10:15:04;37.87;;;12.03;;
17604;SDS011;8921;50.964;6.800;2024-01-25T10:17:32;39.80;;;15.40;;
17604;SDS011;8921;50.964;6.800;2024-01-25T10:20:00;43.97;;;11.60;;
17604;SDS011;8921;50.964;6.800;2024-01-25T10:22:28;46.07;;;12.03;;
17604;SDS011;8921;50.964;6.800;2024-01-25T10:24:57;49.80;;;14.13;;
17604;SDS011;8921;50.964;6.800;2024-01-25T10:27:25;37.47;;;11.47;;
17604;SDS011;8921;50.964;6.800;2024-01-25T10:29:53;31.57;;;12.20;;
17604;SDS011;8921;50.964;6.800;2024-01-25T10:32:22;39.87;;;13.77;;
17604;SDS011;8921;50.964;6.800;2024-01-25T10:34:50;46.53;;;12.43;;
17604;SDS011;8921;50.964;6.800;2024-01-25T10:37:18;30.90;;;12.83;;
17604;SDS011;8921;50.964;6.800;2024-01-25T10:39:47;47.03;;;14.47;;
17604;SDS011;8921;50.964;6.800;2024-01-25T10:42:15;34.93;;;13.03;;
17604;SDS011;8921;50.964;6.800;2024-01-25T10:44:43;35.60;;;12.20;;
17604;SDS011;8921;50.964;6.800;2024-01-25T10:47:12;43.90;;;12.53;;
17604;SDS011;8921;50.964;6.800;2024-01-25T10:49:40;50.07;;;13.00;;
17604;SDS011;8921;50.964;6.800;2024-01-25T10:52:08;30.77;;;10.67;;
17604;SDS011;8921;50.964;6.800;2024-01-25T10:54:36;39.13;;;14.13;;
17604;SDS011;8921;50.964;6.800;2024-01-25T10:57:05;34.50;;;12.90;;
17604;SDS011;8921;50.964;6.800;2024-01-25T10:59:33;50.40;;;14.80;;
17604;SDS011;8921;50.964;6.800;2024-01-25T11:02:01;31.53;;;10.50;;
17604;SDS011;8921;50.964;6.800;2024-01-25T11:04:30;41.93;;;12.70;;
17604;SDS011;8921;50.964;6.800;2024-01-25T11:07:05;37.57;;;10.67;;
17604;SDS011;8921;50.964;6.800;2024-01-25T11:09:32;46.77;;;12.33;;
17604;SDS011;8921;50.964;6.800;2024-01-25T11:12:00;40.67;;;11.10;;
17604;SDS011;8921;50.964;6.800;2024-01-25T11:14:29;39.43;;;12.70;;
17604;SDS011;8921;50.964;6.800;2024-01-25T11:16:57;34.07;;;10.73;;
17604;SDS011;8921;50.964;6.800;2024-01-25T11:19:25;52.03;;;13.03;;
17604;SDS011;8921;50.964;6.800;2024-01-25T11:21:54;31.37;;;11.33;;
17604;SDS011;8921;50.964;6.800;2024-01-25T11:24:23;30.63;;;10.50;;
17604;SDS011;8921;50.964;6.800;2024-01-25T11:26:50;33.03;;;11.70;;
17604;SDS011;8921;50.964;6.800;2024-01-25T11:29:19;46.67;;;11.30;;
17604;SDS011;8921;50.964;6.800;2024-01-25T11:31:47;33.27;;;11.67;;
17604;SDS011;8921;50.964;6.800;2024-01-25T11:34:16;35.20;;;11.50;;
17604;SDS011;8921;50.964;6.800;2024-01-25T11:36:46;41.37;;;11.87;;
17604;SDS011;8921;50.964;6.800;2024-01-25T11:39:15;40.43;;;11.83;;
17604;SDS011;8921;50.964;6.800;2024-01-25T11:41:43;40.37;;;13.33;;
17604;SDS011;8921;50.964;6.800;2024-01-25T11:44:14;37.43;;;12.43;;
17604;SDS011;8921;50.964;6.800;2024-01-25T11:46:42;45.10;;;14.03;;
17604;SDS011;8921;50.964;6.800;2024-01-25T11:49:10;33.87;;;12.20;;
17604;SDS011;8921;50.964;6.800;2024-01-25T11:51:39;39.57;;;11.40;;
17604;SDS011;8921;50.964;6.800;2024-01-25T11:54:07;34.40;;;10.37;;
17604;SDS011;8921;50.964;6.800;2024-01-25T11:56:37;31.13;;;10.47;;
17604;SDS011;8921;50.964;6.800;2024-01-25T11:59:04;27.80;;;9.23;;
17604;SDS011;8921;50.964;6.800;2024-01-25T12:01:32;29.13;;;10.00;;
17604;SDS011;8921;50.964;6.800;2024-01-25T12:04:00;32.93;;;8.90;;
17604;SDS011;8921;50.964;6.800;2024-01-25T12:06:29;29.87;;;10.97;;
17604;SDS011;8921;50.964;6.800;2024-01-25T12:09:05;33.67;;;10.80;;
17604;SDS011;8921;50.964;6.800;2024-01-25T12:11:25;33.30;;;9.43;;
17604;SDS011;8921;50.964;6.800;2024-01-25T12:13:53;37.10;;;10.30;;
17604;SDS011;8921;50.964;6.800;2024-01-25T12:16:22;35.53;;;9.03;;
17604;SDS011;8921;50.964;6.800;2024-01-25T12:18:50;34.17;;;9.50;;
17604;SDS011;8921;50.964;6.800;2024-01-25T12:21:18;36.17;;;7.93;;
17604;SDS011;8921;50.964;6.800;2024-01-25T12:23:46;41.53;;;10.13;;
17604;SDS011;8921;50.964;6.800;2024-01-25T12:26:15;40.20;;;11.20;;
17604;SDS011;8921;50.964;6.800;2024-01-25T12:28:43;29.77;;;9.47;;
17604;SDS011;8921;50.964;6.800;2024-01-25T12:31:11;28.50;;;10.80;;
17604;SDS011;8921;50.964;6.800;2024-01-25T12:33:41;36.27;;;9.17;;
17604;SDS011;8921;50.964;6.800;2024-01-25T12:36:09;34.27;;;8.47;;
17604;SDS011;8921;50.964;6.800;2024-01-25T12:38:36;30.27;;;9.77;;
17604;SDS011;8921;50.964;6.800;2024-01-25T12:41:05;26.67;;;7.33;;
17604;SDS011;8921;50.964;6.800;2024-01-25T12:43:33;28.30;;;8.10;;
17604;SDS011;8921;50.964;6.800;2024-01-25T12:46:01;34.67;;;8.57;;
17604;SDS011;8921;50.964;6.800;2024-01-25T12:48:30;26.93;;;7.80;;
17604;SDS011;8921;50.964;6.800;2024-01-25T12:50:58;35.90;;;7.37;;
17604;SDS011;8921;50.964;6.800;2024-01-25T12:53:27;26.30;;;6.60;;
17604;SDS011;8921;50.964;6.800;2024-01-25T12:55:54;30.80;;;7.47;;
17604;SDS011;8921;50.964;6.800;2024-01-25T12:58:23;28.70;;;7.53;;
17604;SDS011;8921;50.964;6.800;2024-01-25T13:00:51;31.90;;;7.63;;
17604;SDS011;8921;50.964;6.800;2024-01-25T13:03:19;23.80;;;7.47;;
17604;SDS011;8921;50.964;6.800;2024-01-25T13:05:48;26.00;;;7.40;;
17604;SDS011;8921;50.964;6.800;2024-01-25T13:08:16;25.90;;;7.37;;
17604;SDS011;8921;50.964;6.800;2024-01-25T13:10:44;31.40;;;7.13;;
17604;SDS011;8921;50.964;6.800;2024-01-25T13:13:12;30.83;;;6.80;;
17604;SDS011;8921;50.964;6.800;2024-01-25T13:15:41;29.53;;;7.73;;
17604;SDS011;8921;50.964;6.800;2024-01-25T13:18:09;36.53;;;10.47;;
17604;SDS011;8921;50.964;6.800;2024-01-25T13:20:37;26.47;;;8.47;;
17604;SDS011;8921;50.964;6.800;2024-01-25T13:23:06;31.27;;;7.50;;
17604;SDS011;8921;50.964;6.800;2024-01-25T13:25:34;28.20;;;6.30;;
17604;SDS011;8921;50.964;6.800;2024-01-25T13:28:02;19.37;;;5.67;;
17604;SDS011;8921;50.964;6.800;2024-01-25T13:30:31;21.23;;;5.90;;
17604;SDS011;8921;50.964;6.800;2024-01-25T13:32:59;29.27;;;6.83;;
17604;SDS011;8921;50.964;6.800;2024-01-25T13:35:27;26.93;;;7.77;;
17604;SDS011;8921;50.964;6.800;2024-01-25T13:37:55;28.37;;;8.13;;
17604;SDS011;8921;50.964;6.800;2024-01-25T13:40:24;37.20;;;12.13;;
17604;SDS011;8921;50.964;6.800;2024-01-25T13:42:52;32.33;;;10.70;;
17604;SDS011;8921;50.964;6.800;2024-01-25T13:45:20;25.57;;;6.53;;
17604;SDS011;8921;50.964;6.800;2024-01-25T13:47:49;33.93;;;6.07;;
17604;SDS011;8921;50.964;6.800;2024-01-25T13:50:17;21.60;;;6.10;;
17604;SDS011;8921;50.964;6.800;2024-01-25T13:52:45;21.10;;;6.40;;
17604;SDS011;8921;50.964;6.800;2024-01-25T13:55:13;18.20;;;5.00;;
17604;SDS011;8921;50.964;6.800;2024-01-25T13:57:42;16.73;;;7.07;;
17604;SDS011;8921;50.964;6.800;2024-01-25T14:00:10;19.40;;;5.50;;
17604;SDS011;8921;50.964;6.800;2024-01-25T14:02:39;19.37;;;5.57;;
17604;SDS011;8921;50.964;6.800;2024-01-25T14:05:07;24.43;;;6.43;;
17604;SDS011;8921;50.964;6.800;2024-01-25T14:07:35;20.47;;;5.63;;
17604;SDS011;8921;50.964;6.800;2024-01-25T14:10:04;21.10;;;5.93;;
17604;SDS011;8921;50.964;6.800;2024-01-25T14:12:32;23.60;;;6.10;;
17604;SDS011;8921;50.964;6.800;2024-01-25T14:15:00;20.87;;;6.10;;
17604;SDS011;8921;50.964;6.800;2024-01-25T14:17:29;21.13;;;5.47;;
17604;SDS011;8921;50.964;6.800;2024-01-25T14:19:57;19.90;;;5.27;;
17604;SDS011;8921;50.964;6.800;2024-01-25T14:22:25;23.63;;;6.57;;
17604;SDS011;8921;50.964;6.800;2024-01-25T14:24:54;18.53;;;5.37;;
17604;SDS011;8921;50.964;6.800;2024-01-25T14:27:22;25.53;;;7.27;;
17604;SDS011;8921;50.964;6.800;2024-01-25T14:29:50;19.87;;;5.80;;
17604;SDS011;8921;50.964;6.800;2024-01-25T14:32:19;27.67;;;5.40;;
17604;SDS011;8921;50.964;6.800;2024-01-25T14:34:47;22.87;;;5.10;;
17604;SDS011;8921;50.964;6.800;2024-01-25T14:37:15;28.93;;;7.80;;
17604;SDS011;8921;50.964;6.800;2024-01-25T14:39:43;35.63;;;6.67;;
17604;SDS011;8921;50.964;6.800;2024-01-25T14:42:12;21.10;;;5.97;;
17604;SDS011;8921;50.964;6.800;2024-01-25T14:44:43;32.27;;;6.50;;
17604;SDS011;8921;50.964;6.800;2024-01-25T14:47:11;29.53;;;8.50;;